The Sea Ranch, CA

3:07 PM PDT on March 24, 2017 (GMT -0700)
Ukiah Municipal | | Change Station

Elev 614 ft 39.13 °N, 123.20 °W | Updated 11 minutes ago

Mostly Cloudy
Mostly Cloudy
56 °F
Feels Like 56 °F
N
4
Wind Variable Wind from Variable

Today
High -- | Low -- °F
--% Chance of Precip.
Yesterday
High -- | Low -- °F
Precip. -- in
Pressure 30.11 in
Visibility 10.0 miles
Clouds Few 1900 ft
Mostly Cloudy 4200 ft
Mostly Cloudy 6000 ft
Dew Point 48 °F
Humidity 75%
Rainfall 1.10 in
Snow Depth Not available.
7:10 AM 7:29 PM
Waning Crescent, 12% visible
METAR KUKI 242156Z AUTO VRB03KT 10SM FEW019 BKN042 BKN060 13/09 A3012 RMK AO2 RAB30E40 SLP195 P0000 T01330089
Pressure 30.11 in
Visibility 10.0 miles
Clouds Few 1900 ft
Mostly Cloudy 4200 ft
Mostly Cloudy 6000 ft
Dew Point 48 °F
Humidity 75%
Rainfall 1.10 in
Snow Depth Not available.
7:10 AM 7:29 PM
Waning Crescent, 12% visible
METAR KUKI 242156Z AUTO VRB03KT 10SM FEW019 BKN042 BKN060 13/09 A3012 RMK AO2 RAB30E40 SLP195 P0000 T01330089

Get Severe Weather Alerts

Thanks for signing up!

Be on the lookout for a verification email in your inbox.

You'll start receiving the daily forecast at 8 AM.

×

10-Day Weather Forecast

Almanac

Astronomy

Mar. 24, 2017 Rise Set
Actual Time
Civil Twilight
Nautical Twilight
Astronomical Twilight
Moon
Length of Visible Light
Length of Day
Tomorrow will be .
, % of the Moon is Illuminated

Today's Extremes

State Highs State Lows

Community

WunderPhotos

Upload Photos

1,962,540 photos uploaded!

WunderBlog® & News

Nearby

Air Quality

  Air Quality AQ Index Pollutant
Not available.

Snow Depth

Station Depth Elevation

Earthquake Activity

City Distance Mag. Time & Date
Minimum magnitude displayed is 2.5.

Earthquake Activity

City Distance Mag. Time & Date
Minimum magnitude displayed is 2.5.

Coastal Water Temperatures

Place Temperature

Stations

Nearby Weather Stations

Station Location Temp. Windchill Dew Point Humidity Wind Precip. Elev Updated Type
                   

Watches & Warnings

There are currently no watches in effect.